New Hampshire Logo

Exeter, NH Single Family Real Estate Listings

51 Total Real Estate Listings * Click on table heading to sort
Date Posted Property Type Style Address Price Living Area Lot Size Price/Sq Ft.
2018-11-08 Single Family Cape 31 Exeter Farms Exeter, NH 03833 $459,900 2,700 sq. ft. 8,276 sq. ft. $170
2018-11-05 Single Family Ranch 15 Westside Exeter, NH 03833 $262,000 960 sq. ft. 9,583 sq. ft. $273
2018-10-29 Single Family Ranch 77 Jady Hill Avenue Exeter, NH 03833 $309,900 1,106 sq. ft. 6,970 sq. ft. $280
2018-10-29 Single Family New Englander 13 Mckinley Exeter, NH 03833 $319,900 1,484 sq. ft. 21,780 sq. ft. $216
2018-10-25 Single Family Cape 1 Wentworth Exeter, NH 03833 $260,000 1,512 sq. ft. 15,682 sq. ft. $172
2018-10-23 Single Family New Englander 1 Dewey Exeter, NH 03833 $275,000 1,508 sq. ft. 15,246 sq. ft. $182
2018-10-22 Single Family Colonial 24 Watson Exeter, NH 03833 $399,900 2,519 sq. ft. 106,722 sq. ft. $159
2018-10-16 Single Family Modern Architecture 2 Sterling Hill Exeter, NH 03833 $307,700 1,382 sq. ft. 696,960 sq. ft. $223
2018-10-13 Single Family Ranch 36 Pickpocket Exeter, NH 03833 $349,900 948 sq. ft. 32,670 sq. ft. $369
2018-10-10 Single Family Colonial 14 Blackford Exeter, NH 03833 $649,900 4,037 sq. ft. 56,628 sq. ft. $161
2018-10-10 Single Family Gambrel 21 Greenleaf Exeter, NH 03833 $525,000 2,426 sq. ft. 52,272 sq. ft. $216
2018-10-10 Single Family Raised Ranch 174 Brentwood Exeter, NH 03833 $299,900 1,547 sq. ft. 34,848 sq. ft. $194
2018-09-30 Single Family Cape 26 Hampton Falls Exeter, NH 03833 $412,900 1,912 sq. ft. 26,136 sq. ft. $216
2018-09-30 Single Family Colonial 3 Rinny Exeter, NH 03833 $459,900 2,585 sq. ft. 33,977 sq. ft. $178
2018-09-28 Single Family Cape 47 Oaklands Exeter, NH 03833 $409,900 2,252 sq. ft. 130,680 sq. ft. $182
2018-09-27 Single Family Colonial 83 Beech Hill Exeter, NH 03833 $849,000 6,140 sq. ft. 211,266 sq. ft. $138
2018-09-26 Single Family Ranch 9 Thornton Exeter, NH 03833 $329,000 1,152 sq. ft. 20,038 sq. ft. $286
2018-09-25 Single Family Manuf/Mobile 222 Robin Hood Exeter, NH 03833 $164,900 1,350 sq. ft. $122
2018-09-25 Single Family Manuf/Mobile 214 Robin Hood Exeter, NH 03833 $174,900 1,532 sq. ft. $114
2018-09-25 Single Family Manuf/Mobile 302 Friar Tuck Exeter, NH 03833 $154,900 1,143 sq. ft. $136
2018-09-19 Single Family Bungalow 13 Locust Exeter, NH 03833 $399,999 1,596 sq. ft. 9,148 sq. ft. $251
2018-09-15 Single Family Manuf/Mobile 10 Wayland Exeter, NH 03833 $75,000 1,074 sq. ft. $70
2018-09-14 Single Family Colonial 7 Stone Ridge Exeter, NH 03833 $724,900 4,200 sq. ft. 77,537 sq. ft. $173
2018-09-12 Single Family Cape 25 Hampton Exeter, NH 03833 $275,000 1,386 sq. ft. 29,621 sq. ft. $198
2018-09-08 Single Family 32 Pickpocket Exeter, NH 03833 $1,200,000 5,072 sq. ft. 361,548 sq. ft. $237
2018-09-07 Single Family Bungalow 201 High Exeter, NH 03833 $674,900 2,515 sq. ft. 21,780 sq. ft. $268
2018-09-06 Single Family Contemporary; Craftsman 137 Brentwood Exeter, NH 03833 $675,000 3,145 sq. ft. 227,383 sq. ft. $215
2018-09-06 Single Family Cape 21 Ashbrook Exeter, NH 03833 $349,900 2,342 sq. ft. 16,553 sq. ft. $149
2018-08-25 Single Family Cape 101 High Exeter, NH 03833 $489,000 2,172 sq. ft. 74,052 sq. ft. $225
2018-08-23 Single Family Contemporary 42 Drinkwater Exeter, NH 03833 $549,000 3,705 sq. ft. 270,072 sq. ft. $148
2018-08-14 Single Family Cape 1 Garrison Exeter, NH 03833 $599,900 2,911 sq. ft. 129,809 sq. ft. $206
2018-08-12 Single Family Cape 135 High Exeter, NH 03833 $589,000 3,755 sq. ft. 18,731 sq. ft. $157
2018-08-11 Single Family Cape 42 Brentwood Exeter, NH 03833 $199,900 834 sq. ft. 87,120 sq. ft. $240
2018-08-06 Single Family Colonial 3 Hillside Exeter, NH 03833 $599,900 3,554 sq. ft. 40,511 sq. ft. $169
2018-08-01 Single Family Colonial 116 High Exeter, NH 03833 $299,900 1,800 sq. ft. 12,197 sq. ft. $167
2018-08-01 Single Family Colonial; Contemporary 3 Amberwood Exeter, NH 03833 $529,000 2,072 sq. ft. 24,829 sq. ft. $255
2018-07-19 Single Family Colonial; Gambrel 157 Kingston Exeter, NH 03833 $259,900 1,230 sq. ft. 42,253 sq. ft. $211
2018-07-18 Single Family Colonial 29 Little Pine Exeter, NH 03833 $485,000 2,802 sq. ft. 18,295 sq. ft. $173
2018-07-15 Single Family Colonial 27 Little Pine Exeter, NH 03833 $525,000 4,268 sq. ft. 26,572 sq. ft. $123
2018-07-12 Single Family Contemporary 4 Moore Exeter, NH 03833 $659,900 4,354 sq. ft. 47,916 sq. ft. $152
2018-06-18 Single Family New Englander 26 Auburn Exeter, NH 03833 $329,900 2,172 sq. ft. 10,454 sq. ft. $152
2018-06-09 Single Family Cape; Condex; Contemporary 13 Minuteman Exeter, NH 03833 $324,900 1,854 sq. ft. $175
2018-06-04 Single Family Colonial 45 Pine Exeter, NH 03833 $1,695,000 4,480 sq. ft. 95,832 sq. ft. $378
2018-05-17 Single Family Colonial 12 Pickpocket Exeter, NH 03833 $2,100,000 5,680 sq. ft. 622,908 sq. ft. $370
2018-05-11 Single Family Federal 24 Newfields Exeter, NH 03833 $739,900 3,703 sq. ft. 117,612 sq. ft. $200
2018-05-11 Single Family Colonial 97 Brentwood Exeter, NH 03833 $499,900 4,118 sq. ft. 218,671 sq. ft. $121
2018-04-23 Single Family Colonial 8 Nathaniel Exeter, NH 03833 $355,000 2,241 sq. ft. 50,530 sq. ft. $158
2018-01-20 Single Family Colonial 19 Garrison Exeter, NH 03833 $649,900 2,546 sq. ft. 91,912 sq. ft. $255
2017-08-01 Single Family Cape 7 Redberry Rd (Fka 1 Beech Hill Rd Ext) Exeter, NH 03833 $895,000 1,768 sq. ft. 293,159 sq. ft. $506
2017-06-23 Single Family Antique; Colonial 17 Newfields Exeter, NH 03833 $999,999 7,622 sq. ft. 113,256 sq. ft. $131
2016-07-30 Single Family Victorian 33 Pine Exeter, NH 03833 $1,125,000 4,800 sq. ft. 47,916 sq. ft. $234